Time;durP1;ratioP1;P1;durP2;ratioP2;P2;SDS_P1;SDS_P2;PMS_P1;PMS_P2;Temp;Humidity;BMP_temperature;BMP_pressure;BME280_temperature;BME280_humidity;BME280_pressure;Samples;Min_cycle;Max_cycle;Signal;HPM_P1;HPM_P2
2024/03/03 00:01:55;;;;;;;;;;;7.00;99.90;;;;;;21027113;28;19912;-81
2024/03/03 00:11:56;;;;;;;;;;;6.90;99.90;;;;;;21093469;28;19916;-84
2024/03/03 00:21:57;;;;;;;;;;;6.90;99.90;;;;;;21047709;28;19913;-84
2024/03/03 00:31:57;;;;;;;;;;;7.30;99.90;;;;;;21050215;28;19916;-81
2024/03/03 00:41:58;;;;;;;;;;;7.00;99.90;;;;;;21043705;28;19918;-81
2024/03/03 00:51:59;;;;;;;;;;;6.80;99.90;;;;;;21058278;28;19969;-84
2024/03/03 01:01:59;;;;;;;;;;;6.60;99.90;;;;;;21043093;28;19981;-80
2024/03/03 01:12:00;;;;;;;;;;;6.40;99.90;;;;;;21038379;28;19923;-83
2024/03/03 01:22:01;;;;;;;;;;;6.60;99.90;;;;;;21058217;28;19931;-82
2024/03/03 01:32:03;;;;;;;;;;;6.30;99.90;;;;;;21063246;28;19942;-81
2024/03/03 01:42:05;;;;;;;;;;;6.30;99.90;;;;;;21061181;28;19937;-83
2024/03/03 01:52:08;;;;;;;;;;;6.20;99.90;;;;;;21052383;28;20007;-83
2024/03/03 02:02:08;;;;;;;;;;;6.40;99.90;;;;;;21045938;28;19921;-82
2024/03/03 02:12:10;;;;;;;;;;;6.40;99.90;;;;;;21053204;28;20396;-81
2024/03/03 02:22:12;;;;;;;;;;;6.30;99.90;;;;;;21042781;28;19961;-81
2024/03/03 02:32:13;;;;;;;;;;;6.30;99.90;;;;;;21054637;28;19916;-84
2024/03/03 02:42:14;;;;;;;;;;;6.40;99.90;;;;;;21037242;28;20385;-79
2024/03/03 02:52:14;;;;;;;;;;;6.40;99.90;;;;;;21031825;28;19916;-80
2024/03/03 03:02:15;;;;;;;;;;;6.30;99.90;;;;;;21017526;28;20274;-81
2024/03/03 03:12:16;;;;;;;;;;;6.40;99.90;;;;;;21041111;28;19917;-80
2024/03/03 03:22:17;;;;;;;;;;;6.70;99.90;;;;;;21061865;28;20355;-82
2024/03/03 03:32:18;;;;;;;;;;;6.30;99.90;;;;;;21052915;28;19923;-83
2024/03/03 03:42:18;;;;;;;;;;;5.80;99.90;;;;;;21050305;28;20342;-82
2024/03/03 03:52:19;;;;;;;;;;;5.70;99.90;;;;;;21079881;28;19941;-81
2024/03/03 04:02:20;;;;;;;;;;;6.00;99.90;;;;;;21079222;28;19946;-81
2024/03/03 04:12:20;;;;;;;;;;;6.10;99.90;;;;;;21075681;28;19939;-82
2024/03/03 04:22:22;;;;;;;;;;;5.90;99.90;;;;;;21048496;28;19920;-82
2024/03/03 04:32:23;;;;;;;;;;;5.80;99.90;;;;;;21060528;28;19923;-81
2024/03/03 04:42:23;;;;;;;;;;;5.70;99.90;;;;;;21061446;28;20003;-81
2024/03/03 04:52:24;;;;;;;;;;;5.50;99.90;;;;;;21059402;28;19951;-82
2024/03/03 05:02:25;;;;;;;;;;;5.50;99.90;;;;;;21069253;28;20002;-80
2024/03/03 05:12:26;;;;;;;;;;;5.30;99.90;;;;;;21072974;28;19969;-80
2024/03/03 05:22:26;;;;;;;;;;;5.40;99.90;;;;;;21077105;28;19916;-79
2024/03/03 05:32:27;;;;;;;;;;;5.20;99.90;;;;;;21060684;28;19916;-81
2024/03/03 05:42:27;;;;;;;;;;;4.80;99.90;;;;;;21047862;28;20375;-80
2024/03/03 05:52:29;;;;;;;;;;;4.80;99.90;;;;;;21065015;28;20030;-81
2024/03/03 06:02:30;;;;;;;;;;;4.40;99.90;;;;;;21059702;28;20299;-80
2024/03/03 06:12:31;;;;;;;;;;;4.30;99.90;;;;;;21053695;28;19916;-80
2024/03/03 06:22:31;;;;;;;;;;;4.00;99.90;;;;;;21066268;28;20567;-80
2024/03/03 06:32:32;;;;;;;;;;;4.20;99.90;;;;;;21057726;28;19926;-81
2024/03/03 06:42:33;;;;;;;;;;;3.80;99.90;;;;;;21041671;28;19920;-78
2024/03/03 06:52:34;;;;;;;;;;;3.60;99.90;;;;;;21062202;28;20015;-80
2024/03/03 07:12:54;;;;;;;;;;;4.30;99.90;;;;;;21062300;28;19924;-79
2024/03/03 07:22:56;;;;;;;;;;;4.30;99.90;;;;;;21040934;28;20269;-80
2024/03/03 07:32:57;;;;;;;;;;;4.50;99.90;;;;;;21049285;28;20376;-80
2024/03/03 07:42:57;;;;;;;;;;;4.80;99.90;;;;;;21051800;28;19943;-79
2024/03/03 07:52:58;;;;;;;;;;;5.50;99.90;;;;;;21042245;28;19925;-80
2024/03/03 08:03:04;;;;;;;;;;;6.00;99.90;;;;;;21044358;28;20390;-78
2024/03/03 08:13:04;;;;;;;;;;;6.80;99.90;;;;;;21040796;28;20390;-81
2024/03/03 08:23:05;;;;;;;;;;;7.70;99.90;;;;;;21030179;28;19935;-83
2024/03/03 08:33:06;;;;;;;;;;;9.10;99.90;;;;;;21060239;28;19916;-82
2024/03/03 08:43:06;;;;;;;;;;;9.20;99.90;;;;;;21034304;28;19919;-82
2024/03/03 08:53:07;;;;;;;;;;;10.30;99.90;;;;;;21057573;28;19916;-82
2024/03/03 09:03:08;;;;;;;;;;;10.50;99.90;;;;;;21062630;28;20363;-82
2024/03/03 09:13:08;;;;;;;;;;;9.20;99.90;;;;;;21045974;28;19924;-79
2024/03/03 09:23:09;;;;;;;;;;;9.00;99.90;;;;;;21086696;28;19927;-79
2024/03/03 09:33:10;;;;;;;;;;;9.40;99.90;;;;;;21065100;28;19969;-78
2024/03/03 09:43:14;;;;;;;;;;;9.90;99.90;;;;;;21029136;28;19999;-80
2024/03/03 09:53:14;;;;;;;;;;;10.80;99.90;;;;;;21033569;28;19917;-79
2024/03/03 10:03:17;;;;;;;;;;;11.10;99.90;;;;;;21040525;28;19912;-80
2024/03/03 10:13:18;;;;;;;;;;;11.10;99.90;;;;;;21069603;28;19961;-80
2024/03/03 10:23:19;;;;;;;;;;;10.60;99.90;;;;;;21042712;28;20003;-79
2024/03/03 10:33:21;;;;;;;;;;;11.10;99.90;;;;;;21022020;28;21403;-79
2024/03/03 10:43:22;;;;;;;;;;;10.70;99.90;;;;;;21056399;28;20268;-79
2024/03/03 10:53:23;;;;;;;;;;;10.50;99.90;;;;;;21023369;28;19962;-79
2024/03/03 11:03:24;;;;;;;;;;;10.70;99.90;;;;;;21051280;28;19922;-80
2024/03/03 11:13:25;;;;;;;;;;;10.70;99.90;;;;;;21017853;28;19916;-79
2024/03/03 11:23:35;;;;;;;;;;;11.10;99.90;;;;;;21022800;28;20003;-79
2024/03/03 11:33:36;;;;;;;;;;;11.10;99.90;;;;;;21010240;28;19920;-79
2024/03/03 11:43:38;;;;;;;;;;;11.30;99.90;;;;;;21018973;28;19919;-77
2024/03/03 11:53:41;;;;;;;;;;;11.60;99.90;;;;;;21024424;28;19916;-78
2024/03/03 12:03:42;;;;;;;;;;;11.80;99.90;;;;;;21058440;28;20682;-79
2024/03/03 12:13:43;;;;;;;;;;;12.20;99.90;;;;;;21068064;28;19920;-79
2024/03/03 12:23:44;;;;;;;;;;;12.40;99.90;;;;;;21065588;28;19912;-78
2024/03/03 12:33:45;;;;;;;;;;;12.40;99.90;;;;;;21081791;28;20386;-79
2024/03/03 12:43:46;;;;;;;;;;;12.40;99.90;;;;;;21061085;28;20417;-78
2024/03/03 12:53:47;;;;;;;;;;;12.30;99.90;;;;;;21070744;28;19920;-78
2024/03/03 13:03:52;;;;;;;;;;;12.30;99.90;;;;;;21058020;28;20434;-77
2024/03/03 13:13:53;;;;;;;;;;;12.70;99.90;;;;;;21042690;28;19920;-78
2024/03/03 13:23:54;;;;;;;;;;;13.30;99.90;;;;;;21049781;28;20344;-77
2024/03/03 13:33:54;;;;;;;;;;;14.20;99.90;;;;;;21072351;28;19969;-79
2024/03/03 13:43:55;;;;;;;;;;;15.40;99.90;;;;;;21025370;28;19916;-79
2024/03/03 13:53:55;;;;;;;;;;;16.00;99.90;;;;;;21070740;28;20197;-77
2024/03/03 14:03:56;;;;;;;;;;;16.00;99.90;;;;;;21077966;28;19916;-79
2024/03/03 14:13:57;;;;;;;;;;;14.10;99.90;;;;;;21077216;28;20508;-79
2024/03/03 14:23:57;;;;;;;;;;;15.30;99.90;;;;;;21079734;28;19912;-79
2024/03/03 14:33:58;;;;;;;;;;;14.80;99.90;;;;;;21084559;28;19930;-78
2024/03/03 14:43:58;;;;;;;;;;;14.50;99.90;;;;;;21037304;28;19912;-79
2024/03/03 14:53:59;;;;;;;;;;;15.40;99.90;;;;;;21029659;28;20333;-78
2024/03/03 15:04:01;;;;;;;;;;;15.00;99.90;;;;;;21034730;28;19917;-79
2024/03/03 15:14:03;;;;;;;;;;;14.10;99.90;;;;;;21019165;28;19925;-79
2024/03/03 15:24:04;;;;;;;;;;;14.50;99.90;;;;;;21024405;28;19920;-78
2024/03/03 15:34:05;;;;;;;;;;;14.20;99.90;;;;;;21032607;28;20422;-79
2024/03/03 15:44:05;;;;;;;;;;;13.50;99.90;;;;;;21076355;28;19942;-79
2024/03/03 15:54:06;;;;;;;;;;;12.90;99.90;;;;;;21057059;28;19975;-79
2024/03/03 16:04:06;;;;;;;;;;;12.20;99.90;;;;;;21061896;28;19912;-78
2024/03/03 16:14:07;;;;;;;;;;;11.90;99.90;;;;;;21051125;28;19972;-78
2024/03/03 16:24:08;;;;;;;;;;;11.30;99.90;;;;;;21055275;28;20024;-78
2024/03/03 16:34:09;;;;;;;;;;;11.10;99.90;;;;;;21045389;28;20349;-78
2024/03/03 16:44:09;;;;;;;;;;;10.80;99.90;;;;;;21095372;28;19957;-77
2024/03/03 16:54:11;;;;;;;;;;;10.60;99.90;;;;;;21080553;28;20276;-79
2024/03/03 17:04:11;;;;;;;;;;;10.50;99.90;;;;;;21085026;28;19951;-79
2024/03/03 17:14:12;;;;;;;;;;;10.20;99.90;;;;;;21084380;28;20397;-80
2024/03/03 17:24:13;;;;;;;;;;;10.00;99.90;;;;;;21106406;28;19916;-79
2024/03/03 17:34:13;;;;;;;;;;;9.90;99.90;;;;;;21100478;28;19916;-78
2024/03/03 17:44:14;;;;;;;;;;;9.80;99.90;;;;;;21036823;28;19919;-79
2024/03/03 17:54:17;;;;;;;;;;;9.60;99.90;;;;;;21064225;28;20699;-79
2024/03/03 18:04:17;;;;;;;;;;;9.40;99.90;;;;;;21084609;28;20003;-78
2024/03/03 18:14:18;;;;;;;;;;;9.40;99.90;;;;;;21100858;28;19916;-77
2024/03/03 18:24:21;;;;;;;;;;;9.40;99.90;;;;;;21094015;28;19957;-78
2024/03/03 18:34:22;;;;;;;;;;;9.40;99.90;;;;;;21065524;28;19916;-78
2024/03/03 18:44:23;;;;;;;;;;;9.20;99.90;;;;;;21086580;28;19956;-78
2024/03/03 18:54:24;;;;;;;;;;;9.00;99.90;;;;;;21109311;28;20022;-78
2024/03/03 19:04:27;;;;;;;;;;;8.90;99.90;;;;;;21082668;28;19981;-78
2024/03/03 19:14:27;;;;;;;;;;;8.70;99.90;;;;;;21087840;28;19922;-78
2024/03/03 19:24:28;;;;;;;;;;;8.60;99.90;;;;;;21082697;28;20002;-78
2024/03/03 19:34:29;;;;;;;;;;;8.50;99.90;;;;;;21074781;28;19916;-78
2024/03/03 19:44:30;;;;;;;;;;;8.40;99.90;;;;;;21077367;28;19912;-79
2024/03/03 19:54:32;;;;;;;;;;;8.30;99.90;;;;;;21089110;28;19964;-80
2024/03/03 20:04:32;;;;;;;;;;;8.20;99.90;;;;;;21068509;28;19983;-80
2024/03/03 20:14:33;;;;;;;;;;;8.00;99.90;;;;;;21048104;28;19991;-81
2024/03/03 20:24:34;;;;;;;;;;;8.00;99.90;;;;;;21054505;28;19912;-79
2024/03/03 20:34:35;;;;;;;;;;;7.90;99.90;;;;;;21032923;28;19942;-77
2024/03/03 20:44:36;;;;;;;;;;;7.90;99.90;;;;;;21066419;28;19948;-76
2024/03/03 20:54:36;;;;;;;;;;;7.80;99.90;;;;;;21087617;28;19963;-77
2024/03/03 21:04:38;;;;;;;;;;;7.70;99.90;;;;;;21065563;28;19965;-76
2024/03/03 21:14:39;;;;;;;;;;;7.70;99.90;;;;;;21076259;28;19915;-77
2024/03/03 21:24:39;;;;;;;;;;;7.60;99.90;;;;;;21016394;28;19966;-77
2024/03/03 21:34:40;;;;;;;;;;;7.50;99.90;;;;;;21011839;28;19917;-76
2024/03/03 21:44:40;;;;;;;;;;;7.40;99.90;;;;;;21026608;28;20287;-76
2024/03/03 21:54:41;;;;;;;;;;;7.30;99.90;;;;;;21021585;28;19917;-78
2024/03/03 22:04:42;;;;;;;;;;;7.10;99.90;;;;;;21024806;28;19917;-78
2024/03/03 22:14:42;;;;;;;;;;;7.10;99.90;;;;;;21018324;28;20387;-77
2024/03/03 22:24:43;;;;;;;;;;;6.90;99.90;;;;;;21006842;28;20012;-77
2024/03/03 22:34:43;;;;;;;;;;;6.90;99.90;;;;;;20993555;28;20011;-77
2024/03/03 22:44:44;;;;;;;;;;;6.80;99.90;;;;;;20993762;28;19944;-78
2024/03/03 22:54:45;;;;;;;;;;;6.80;99.90;;;;;;21008757;28;19969;-76
2024/03/03 23:04:45;;;;;;;;;;;6.80;99.90;;;;;;21006287;28;19918;-77
2024/03/03 23:14:46;;;;;;;;;;;6.80;99.90;;;;;;21012444;28;20395;-76
2024/03/03 23:24:47;;;;;;;;;;;6.70;99.90;;;;;;21015970;28;20260;-77
2024/03/03 23:34:47;;;;;;;;;;;6.60;99.90;;;;;;21059210;28;19983;-77
2024/03/03 23:44:48;;;;;;;;;;;6.60;99.90;;;;;;21076158;28;19916;-77
2024/03/03 23:54:49;;;;;;;;;;;6.60;99.90;;;;;;21077287;28;19916;-77
